sensor_id;sensor_type;location;lat;lon;timestamp;pressure;altitude;pressure_sealevel;temperature;humidity
19676;BME280;39539;52.202;9.876;2023-03-15T00:02:24;100020.91;;;0.18;100.00
19676;BME280;39539;52.202;9.876;2023-03-15T00:04:50;100014.25;;;-0.03;100.00
19676;BME280;39539;52.202;9.876;2023-03-15T00:07:15;100012.59;;;-0.04;100.00
19676;BME280;39539;52.202;9.876;2023-03-15T00:09:41;100038.09;;;0.03;100.00
19676;BME280;39539;52.202;9.876;2023-03-15T00:12:06;100028.84;;;-0.18;100.00
19676;BME280;39539;52.202;9.876;2023-03-15T00:14:32;100044.56;;;-0.10;100.00
19676;BME280;39539;52.202;9.876;2023-03-15T00:16:59;100048.16;;;-0.11;100.00
19676;BME280;39539;52.202;9.876;2023-03-15T00:19:24;100061.72;;;-0.07;100.00
19676;BME280;39539;52.202;9.876;2023-03-15T00:21:49;100054.41;;;-0.04;100.00
19676;BME280;39539;52.202;9.876;2023-03-15T00:24:14;100053.47;;;0.06;100.00
19676;BME280;39539;52.202;9.876;2023-03-15T00:26:40;100065.63;;;0.15;100.00
19676;BME280;39539;52.202;9.876;2023-03-15T00:29:05;100071.50;;;0.17;100.00
19676;BME280;39539;52.202;9.876;2023-03-15T00:31:30;100084.63;;;0.25;100.00
19676;BME280;39539;52.202;9.876;2023-03-15T00:33:56;100081.38;;;0.23;100.00
19676;BME280;39539;52.202;9.876;2023-03-15T00:36:22;100087.41;;;0.24;100.00
19676;BME280;39539;52.202;9.876;2023-03-15T00:38:49;100076.72;;;0.17;100.00
19676;BME280;39539;52.202;9.876;2023-03-15T00:41:16;100092.13;;;0.20;100.00
19676;BME280;39539;52.202;9.876;2023-03-15T00:43:42;100079.06;;;0.20;100.00
19676;BME280;39539;52.202;9.876;2023-03-15T00:46:08;100098.38;;;0.27;100.00
19676;BME280;39539;52.202;9.876;2023-03-15T00:48:33;100098.38;;;0.27;100.00
19676;BME280;39539;52.202;9.876;2023-03-15T00:51:09;100109.00;;;0.34;100.00
19676;BME280;39539;52.202;9.876;2023-03-15T00:53:36;100116.72;;;0.35;100.00
19676;BME280;39539;52.202;9.876;2023-03-15T00:56:13;100118.34;;;0.36;100.00
19676;BME280;39539;52.202;9.876;2023-03-15T00:58:39;100114.09;;;0.35;100.00
19676;BME280;39539;52.202;9.876;2023-03-15T01:01:18;100112.00;;;0.39;100.00
19676;BME280;39539;52.202;9.876;2023-03-15T01:03:44;100105.28;;;0.36;100.00
19676;BME280;39539;52.202;9.876;2023-03-15T01:06:24;100115.47;;;0.48;100.00
19676;BME280;39539;52.202;9.876;2023-03-15T01:08:50;100118.63;;;0.59;100.00
19676;BME280;39539;52.202;9.876;2023-03-15T01:11:19;100112.28;;;0.62;100.00
19676;BME280;39539;52.202;9.876;2023-03-15T01:13:45;100107.72;;;0.64;100.00
19676;BME280;39539;52.202;9.876;2023-03-15T01:16:12;100114.34;;;0.84;100.00
19676;BME280;39539;52.202;9.876;2023-03-15T01:18:39;100110.44;;;0.88;100.00
19676;BME280;39539;52.202;9.876;2023-03-15T01:21:06;100101.56;;;0.81;100.00
19676;BME280;39539;52.202;9.876;2023-03-15T01:23:31;100115.72;;;0.97;100.00
19676;BME280;39539;52.202;9.876;2023-03-15T01:26:01;100129.78;;;1.04;100.00
19676;BME280;39539;52.202;9.876;2023-03-15T01:28:28;100125.19;;;0.98;100.00
19676;BME280;39539;52.202;9.876;2023-03-15T01:30:53;100098.81;;;0.83;100.00
19676;BME280;39539;52.202;9.876;2023-03-15T01:33:19;100115.31;;;0.83;100.00
19676;BME280;39539;52.202;9.876;2023-03-15T01:35:45;100100.75;;;0.81;100.00
19676;BME280;39539;52.202;9.876;2023-03-15T01:38:11;100118.31;;;0.97;100.00
19676;BME280;39539;52.202;9.876;2023-03-15T01:40:43;100110.47;;;0.97;100.00
19676;BME280;39539;52.202;9.876;2023-03-15T01:43:13;100118.34;;;1.05;100.00
19676;BME280;39539;52.202;9.876;2023-03-15T01:48:31;100126.03;;;1.06;100.00
19676;BME280;39539;52.202;9.876;2023-03-15T01:50:59;100125.59;;;1.19;100.00
19676;BME280;39539;52.202;9.876;2023-03-15T01:53:28;100124.75;;;1.19;100.00
19676;BME280;39539;52.202;9.876;2023-03-15T01:55:55;100118.25;;;1.23;100.00
19676;BME280;39539;52.202;9.876;2023-03-15T01:58:23;100121.72;;;1.40;100.00
19676;BME280;39539;52.202;9.876;2023-03-15T02:00:51;100121.38;;;1.43;98.98
19676;BME280;39539;52.202;9.876;2023-03-15T02:03:21;100117.44;;;1.47;99.73
19676;BME280;39539;52.202;9.876;2023-03-15T02:05:54;100125.16;;;1.48;100.00
19676;BME280;39539;52.202;9.876;2023-03-15T02:08:24;100092.56;;;1.34;97.90
19676;BME280;39539;52.202;9.876;2023-03-15T02:10:52;100121.41;;;1.59;98.14
19676;BME280;39539;52.202;9.876;2023-03-15T02:13:22;100123.19;;;1.67;96.75
19676;BME280;39539;52.202;9.876;2023-03-15T02:15:49;100126.00;;;1.73;96.47
19676;BME280;39539;52.202;9.876;2023-03-15T02:18:18;100116.81;;;1.69;98.03
19676;BME280;39539;52.202;9.876;2023-03-15T02:23:23;100097.84;;;1.67;96.99
19676;BME280;39539;52.202;9.876;2023-03-15T02:25:57;100119.13;;;1.80;94.66
19676;BME280;39539;52.202;9.876;2023-03-15T02:28:28;100117.50;;;1.79;93.76
19676;BME280;39539;52.202;9.876;2023-03-15T02:30:54;100118.78;;;1.84;93.03
19676;BME280;39539;52.202;9.876;2023-03-15T02:33:26;100129.28;;;1.92;94.00
19676;BME280;39539;52.202;9.876;2023-03-15T02:35:54;100124.56;;;1.95;94.21
19676;BME280;39539;52.202;9.876;2023-03-15T02:38:20;100131.75;;;1.85;95.48
19676;BME280;39539;52.202;9.876;2023-03-15T02:40:47;100129.59;;;1.80;96.45
19676;BME280;39539;52.202;9.876;2023-03-15T02:43:15;100122.06;;;1.77;96.80
19676;BME280;39539;52.202;9.876;2023-03-15T02:45:41;100131.59;;;1.78;96.76
19676;BME280;39539;52.202;9.876;2023-03-15T02:48:08;100143.03;;;1.86;96.14
19676;BME280;39539;52.202;9.876;2023-03-15T02:50:34;100142.72;;;1.97;96.04
19676;BME280;39539;52.202;9.876;2023-03-15T02:53:00;100138.94;;;1.91;96.77
19676;BME280;39539;52.202;9.876;2023-03-15T02:55:27;100144.84;;;1.93;96.11
19676;BME280;39539;52.202;9.876;2023-03-15T02:57:53;100143.72;;;1.96;95.47
19676;BME280;39539;52.202;9.876;2023-03-15T03:00:19;100118.16;;;1.73;96.58
19676;BME280;39539;52.202;9.876;2023-03-15T03:02:46;100139.13;;;1.90;96.95
19676;BME280;39539;52.202;9.876;2023-03-15T03:05:13;100154.81;;;1.98;96.91
19676;BME280;39539;52.202;9.876;2023-03-15T03:07:39;100154.19;;;1.96;96.72
19676;BME280;39539;52.202;9.876;2023-03-15T03:10:07;100155.34;;;1.93;97.35
19676;BME280;39539;52.202;9.876;2023-03-15T03:12:33;100151.56;;;1.88;97.88
19676;BME280;39539;52.202;9.876;2023-03-15T03:14:58;100160.91;;;1.90;98.52
19676;BME280;39539;52.202;9.876;2023-03-15T03:17:24;100160.72;;;1.75;99.62
19676;BME280;39539;52.202;9.876;2023-03-15T03:19:49;100169.72;;;1.81;100.00
19676;BME280;39539;52.202;9.876;2023-03-15T03:22:16;100178.41;;;1.82;100.00
19676;BME280;39539;52.202;9.876;2023-03-15T03:24:41;100181.19;;;1.80;100.00
19676;BME280;39539;52.202;9.876;2023-03-15T03:27:11;100187.25;;;1.80;100.00
19676;BME280;39539;52.202;9.876;2023-03-15T03:29:39;100181.66;;;1.75;100.00
19676;BME280;39539;52.202;9.876;2023-03-15T03:32:05;100194.47;;;1.78;100.00
19676;BME280;39539;52.202;9.876;2023-03-15T03:34:31;100189.53;;;1.75;100.00
19676;BME280;39539;52.202;9.876;2023-03-15T03:36:56;100201.34;;;1.79;100.00
19676;BME280;39539;52.202;9.876;2023-03-15T03:39:22;100211.16;;;1.86;100.00
19676;BME280;39539;52.202;9.876;2023-03-15T03:41:47;100213.09;;;1.75;100.00
19676;BME280;39539;52.202;9.876;2023-03-15T03:44:14;100222.13;;;1.73;100.00
19676;BME280;39539;52.202;9.876;2023-03-15T03:46:39;100207.19;;;1.65;100.00
19676;BME280;39539;52.202;9.876;2023-03-15T03:49:05;100228.81;;;1.75;100.00
19676;BME280;39539;52.202;9.876;2023-03-15T03:51:30;100235.72;;;1.76;100.00
19676;BME280;39539;52.202;9.876;2023-03-15T03:53:58;100230.00;;;1.73;100.00
19676;BME280;39539;52.202;9.876;2023-03-15T03:56:24;100228.31;;;1.64;100.00
19676;BME280;39539;52.202;9.876;2023-03-15T03:58:49;100221.56;;;1.45;100.00
19676;BME280;39539;52.202;9.876;2023-03-15T04:01:15;100236.94;;;1.48;100.00
19676;BME280;39539;52.202;9.876;2023-03-15T04:03:41;100248.56;;;1.45;100.00
19676;BME280;39539;52.202;9.876;2023-03-15T04:06:06;100230.28;;;1.19;100.00
19676;BME280;39539;52.202;9.876;2023-03-15T04:08:32;100253.84;;;1.19;100.00
19676;BME280;39539;52.202;9.876;2023-03-15T04:10:58;100255.75;;;1.09;100.00
19676;BME280;39539;52.202;9.876;2023-03-15T04:13:24;100258.13;;;0.94;100.00
19676;BME280;39539;52.202;9.876;2023-03-15T04:15:50;100259.25;;;0.92;100.00
19676;BME280;39539;52.202;9.876;2023-03-15T04:18:16;100269.34;;;0.86;100.00
19676;BME280;39539;52.202;9.876;2023-03-15T04:20:42;100275.88;;;0.82;100.00
19676;BME280;39539;52.202;9.876;2023-03-15T04:23:15;100273.50;;;0.71;100.00
19676;BME280;39539;52.202;9.876;2023-03-15T04:25:41;100264.78;;;0.62;100.00
19676;BME280;39539;52.202;9.876;2023-03-15T04:28:07;100283.59;;;0.66;100.00
19676;BME280;39539;52.202;9.876;2023-03-15T04:30:35;100258.63;;;0.46;100.00
19676;BME280;39539;52.202;9.876;2023-03-15T04:33:01;100311.97;;;0.79;100.00
19676;BME280;39539;52.202;9.876;2023-03-15T04:35:29;100318.13;;;0.96;100.00
19676;BME280;39539;52.202;9.876;2023-03-15T04:37:56;100310.28;;;0.96;100.00
19676;BME280;39539;52.202;9.876;2023-03-15T04:40:23;100336.25;;;1.15;100.00
19676;BME280;39539;52.202;9.876;2023-03-15T04:42:50;100341.88;;;1.20;100.00
19676;BME280;39539;52.202;9.876;2023-03-15T04:45:16;100324.34;;;1.21;100.00
19676;BME280;39539;52.202;9.876;2023-03-15T04:47:42;100345.22;;;1.39;100.00
19676;BME280;39539;52.202;9.876;2023-03-15T04:50:08;100355.41;;;1.42;100.00
19676;BME280;39539;52.202;9.876;2023-03-15T04:52:34;100341.66;;;1.40;100.00
19676;BME280;39539;52.202;9.876;2023-03-15T04:55:00;100352.81;;;1.42;100.00
19676;BME280;39539;52.202;9.876;2023-03-15T04:57:25;100346.88;;;1.40;100.00
19676;BME280;39539;52.202;9.876;2023-03-15T04:59:50;100346.25;;;1.46;100.00
19676;BME280;39539;52.202;9.876;2023-03-15T05:02:16;100353.13;;;1.47;100.00
19676;BME280;39539;52.202;9.876;2023-03-15T05:04:41;100364.66;;;1.54;100.00
19676;BME280;39539;52.202;9.876;2023-03-15T05:07:08;100372.03;;;1.59;100.00
19676;BME280;39539;52.202;9.876;2023-03-15T05:09:33;100362.16;;;1.52;100.00
19676;BME280;39539;52.202;9.876;2023-03-15T05:12:03;100378.28;;;1.66;100.00
19676;BME280;39539;52.202;9.876;2023-03-15T05:14:28;100372.03;;;1.59;100.00
19676;BME280;39539;52.202;9.876;2023-03-15T05:16:54;100379.09;;;1.66;100.00
19676;BME280;39539;52.202;9.876;2023-03-15T05:19:22;100395.59;;;1.85;100.00
19676;BME280;39539;52.202;9.876;2023-03-15T05:21:48;100401.78;;;1.84;100.00
19676;BME280;39539;52.202;9.876;2023-03-15T05:24:13;100394.56;;;1.77;100.00
19676;BME280;39539;52.202;9.876;2023-03-15T05:26:38;100407.34;;;1.80;100.00
19676;BME280;39539;52.202;9.876;2023-03-15T05:29:04;100399.13;;;1.75;100.00
19676;BME280;39539;52.202;9.876;2023-03-15T05:31:30;100398.94;;;1.69;100.00
19676;BME280;39539;52.202;9.876;2023-03-15T05:34:01;100407.78;;;1.68;100.00
19676;BME280;39539;52.202;9.876;2023-03-15T05:36:28;100402.19;;;1.63;100.00
19676;BME280;39539;52.202;9.876;2023-03-15T05:38:55;100412.38;;;1.74;100.00
19676;BME280;39539;52.202;9.876;2023-03-15T05:41:20;100401.06;;;1.65;100.00
19676;BME280;39539;52.202;9.876;2023-03-15T05:43:45;100433.53;;;1.80;100.00
19676;BME280;39539;52.202;9.876;2023-03-15T05:46:11;100425.63;;;1.72;100.00
19676;BME280;39539;52.202;9.876;2023-03-15T05:48:36;100436.97;;;1.81;100.00
19676;BME280;39539;52.202;9.876;2023-03-15T05:51:01;100430.38;;;1.69;100.00
19676;BME280;39539;52.202;9.876;2023-03-15T05:53:27;100437.47;;;1.76;100.00
19676;BME280;39539;52.202;9.876;2023-03-15T05:55:52;100431.53;;;1.74;100.00
19676;BME280;39539;52.202;9.876;2023-03-15T05:58:17;100460.78;;;1.88;100.00
19676;BME280;39539;52.202;9.876;2023-03-15T06:00:43;100452.19;;;1.77;100.00
19676;BME280;39539;52.202;9.876;2023-03-15T06:03:08;100455.84;;;1.85;100.00
19676;BME280;39539;52.202;9.876;2023-03-15T06:05:33;100463.09;;;1.91;100.00
19676;BME280;39539;52.202;9.876;2023-03-15T06:07:58;100468.06;;;2.02;100.00
19676;BME280;39539;52.202;9.876;2023-03-15T06:10:24;100462.81;;;2.02;100.00
19676;BME280;39539;52.202;9.876;2023-03-15T06:12:49;100479.88;;;2.06;100.00
19676;BME280;39539;52.202;9.876;2023-03-15T06:15:16;100479.88;;;2.06;100.00
19676;BME280;39539;52.202;9.876;2023-03-15T06:17:42;100487.22;;;2.02;100.00
19676;BME280;39539;52.202;9.876;2023-03-15T06:20:07;100497.94;;;2.17;100.00
19676;BME280;39539;52.202;9.876;2023-03-15T06:22:33;100504.84;;;2.18;100.00
19676;BME280;39539;52.202;9.876;2023-03-15T06:24:58;100503.56;;;2.22;100.00
19676;BME280;39539;52.202;9.876;2023-03-15T06:27:24;100504.41;;;2.31;100.00
19676;BME280;39539;52.202;9.876;2023-03-15T06:29:53;100527.25;;;2.39;100.00
19676;BME280;39539;52.202;9.876;2023-03-15T06:32:22;100511.00;;;2.35;100.00
19676;BME280;39539;52.202;9.876;2023-03-15T06:34:47;100537.09;;;2.45;100.00
19676;BME280;39539;52.202;9.876;2023-03-15T06:37:13;100522.34;;;2.44;100.00
19676;BME280;39539;52.202;9.876;2023-03-15T06:39:40;100531.22;;;2.51;100.00
19676;BME280;39539;52.202;9.876;2023-03-15T06:42:06;100524.66;;;2.47;100.00
19676;BME280;39539;52.202;9.876;2023-03-15T06:44:33;100530.91;;;2.54;100.00
19676;BME280;39539;52.202;9.876;2023-03-15T06:46:59;100525.78;;;2.44;100.00
19676;BME280;39539;52.202;9.876;2023-03-15T06:49:25;100542.84;;;2.48;100.00
19676;BME280;39539;52.202;9.876;2023-03-15T06:51:50;100536.66;;;2.58;100.00
19676;BME280;39539;52.202;9.876;2023-03-15T06:54:16;100550.66;;;2.66;100.00
19676;BME280;39539;52.202;9.876;2023-03-15T06:56:41;100550.16;;;2.71;100.00
19676;BME280;39539;52.202;9.876;2023-03-15T06:59:07;100545.44;;;2.83;100.00
19676;BME280;39539;52.202;9.876;2023-03-15T07:01:33;100545.63;;;2.89;100.00
19676;BME280;39539;52.202;9.876;2023-03-15T07:03:59;100566.69;;;3.14;100.00
19676;BME280;39539;52.202;9.876;2023-03-15T07:06:25;100555.53;;;3.12;100.00
19676;BME280;39539;52.202;9.876;2023-03-15T07:08:52;100569.50;;;3.21;100.00
19676;BME280;39539;52.202;9.876;2023-03-15T07:11:18;100576.13;;;3.66;100.00
19676;BME280;39539;52.202;9.876;2023-03-15T07:13:44;100589.34;;;4.38;100.00
19676;BME280;39539;52.202;9.876;2023-03-15T07:16:10;100596.28;;;5.40;95.13
19676;BME280;39539;52.202;9.876;2023-03-15T07:18:36;100590.81;;;5.50;91.42
19676;BME280;39539;52.202;9.876;2023-03-15T07:21:03;100586.19;;;6.13;89.48
19676;BME280;39539;52.202;9.876;2023-03-15T07:23:29;100589.31;;;6.46;85.25
19676;BME280;39539;52.202;9.876;2023-03-15T07:25:55;100591.03;;;7.56;81.19
19676;BME280;39539;52.202;9.876;2023-03-15T07:28:21;100596.78;;;9.27;73.32
19676;BME280;39539;52.202;9.876;2023-03-15T07:30:54;100586.47;;;10.05;68.34
19676;BME280;39539;52.202;9.876;2023-03-15T07:33:22;100564.38;;;9.45;68.97
19676;BME280;39539;52.202;9.876;2023-03-15T07:35:50;100544.09;;;8.21;72.38
19676;BME280;39539;52.202;9.876;2023-03-15T07:38:16;100545.56;;;7.46;76.09
19676;BME280;39539;52.202;9.876;2023-03-15T07:40:41;100543.88;;;6.66;81.01
19676;BME280;39539;52.202;9.876;2023-03-15T07:43:07;100538.16;;;6.03;83.74
19676;BME280;39539;52.202;9.876;2023-03-15T07:45:32;100535.19;;;5.60;85.89
19676;BME280;39539;52.202;9.876;2023-03-15T07:48:00;100544.16;;;5.05;87.66
19676;BME280;39539;52.202;9.876;2023-03-15T07:50:27;100543.50;;;5.03;89.95
19676;BME280;39539;52.202;9.876;2023-03-15T07:52:54;100556.63;;;6.03;87.34
19676;BME280;39539;52.202;9.876;2023-03-15T07:55:20;100601.16;;;8.93;77.51
19676;BME280;39539;52.202;9.876;2023-03-15T07:57:45;100600.97;;;11.08;66.16
19676;BME280;39539;52.202;9.876;2023-03-15T08:00:11;100594.28;;;13.29;58.72
19676;BME280;39539;52.202;9.876;2023-03-15T08:02:38;100583.16;;;14.68;54.36
19676;BME280;39539;52.202;9.876;2023-03-15T08:05:04;100562.63;;;15.14;51.35
19676;BME280;39539;52.202;9.876;2023-03-15T08:07:30;100569.72;;;16.16;50.24
19676;BME280;39539;52.202;9.876;2023-03-15T08:09:55;100547.84;;;16.47;49.25
19676;BME280;39539;52.202;9.876;2023-03-15T08:12:25;100538.91;;;16.80;48.87
19676;BME280;39539;52.202;9.876;2023-03-15T08:14:50;100532.28;;;17.42;46.26
19676;BME280;39539;52.202;9.876;2023-03-15T08:17:17;100519.91;;;16.65;46.71
19676;BME280;39539;52.202;9.876;2023-03-15T08:19:45;100526.59;;;15.05;49.50
19676;BME280;39539;52.202;9.876;2023-03-15T08:22:11;100524.28;;;12.48;53.92
19676;BME280;39539;52.202;9.876;2023-03-15T08:24:39;100522.91;;;11.20;57.10
19676;BME280;39539;52.202;9.876;2023-03-15T08:27:04;100516.41;;;10.00;59.57
19676;BME280;39539;52.202;9.876;2023-03-15T08:29:48;100549.88;;;10.21;62.08
19676;BME280;39539;52.202;9.876;2023-03-15T08:32:15;100563.38;;;9.73;62.23
19676;BME280;39539;52.202;9.876;2023-03-15T08:34:42;100563.69;;;9.10;62.58
19676;BME280;39539;52.202;9.876;2023-03-15T08:37:11;100550.00;;;8.23;65.91
19676;BME280;39539;52.202;9.876;2023-03-15T08:39:40;100581.56;;;8.94;66.62
19676;BME280;39539;52.202;9.876;2023-03-15T08:42:08;100606.69;;;11.75;59.60
19676;BME280;39539;52.202;9.876;2023-03-15T08:44:35;100592.88;;;11.91;56.45
19676;BME280;39539;52.202;9.876;2023-03-15T08:47:01;100592.69;;;12.11;57.19
19676;BME280;39539;52.202;9.876;2023-03-15T08:49:28;100609.63;;;13.76;53.85
19676;BME280;39539;52.202;9.876;2023-03-15T08:51:53;100610.72;;;15.21;50.24
19676;BME280;39539;52.202;9.876;2023-03-15T08:54:19;100610.84;;;15.88;48.64
19676;BME280;39539;52.202;9.876;2023-03-15T08:56:45;100594.53;;;15.44;48.01
19676;BME280;39539;52.202;9.876;2023-03-15T08:59:11;100592.50;;;14.19;50.12
19676;BME280;39539;52.202;9.876;2023-03-15T09:01:36;100601.19;;;14.02;50.52
19676;BME280;39539;52.202;9.876;2023-03-15T09:04:04;100599.81;;;12.97;53.32
19676;BME280;39539;52.202;9.876;2023-03-15T09:06:30;100622.63;;;13.12;54.52
19676;BME280;39539;52.202;9.876;2023-03-15T09:08:55;100610.19;;;12.69;53.76
19676;BME280;39539;52.202;9.876;2023-03-15T09:11:21;100626.97;;;12.32;54.97
19676;BME280;39539;52.202;9.876;2023-03-15T09:13:48;100620.72;;;12.20;55.75
19676;BME280;39539;52.202;9.876;2023-03-15T09:16:14;100631.09;;;13.39;53.74
19676;BME280;39539;52.202;9.876;2023-03-15T09:18:39;100627.66;;;13.01;53.90
19676;BME280;39539;52.202;9.876;2023-03-15T09:21:05;100623.31;;;12.27;53.62
19676;BME280;39539;52.202;9.876;2023-03-15T09:23:31;100632.84;;;11.91;54.52
19676;BME280;39539;52.202;9.876;2023-03-15T09:25:57;100627.75;;;11.51;56.24
19676;BME280;39539;52.202;9.876;2023-03-15T09:28:23;100625.75;;;10.95;57.64
19676;BME280;39539;52.202;9.876;2023-03-15T09:30:50;100638.53;;;10.60;58.74
19676;BME280;39539;52.202;9.876;2023-03-15T09:33:15;100642.25;;;10.32;59.93
19676;BME280;39539;52.202;9.876;2023-03-15T09:35:41;100656.03;;;10.94;60.34
19676;BME280;39539;52.202;9.876;2023-03-15T09:38:06;100675.63;;;11.96;57.64
19676;BME280;39539;52.202;9.876;2023-03-15T09:40:34;100663.03;;;12.35;55.34
19676;BME280;39539;52.202;9.876;2023-03-15T09:48:39;100653.22;;;12.72;52.87
19676;BME280;39539;52.202;9.876;2023-03-15T09:51:16;100654.78;;;12.98;53.41
19676;BME280;39539;52.202;9.876;2023-03-15T09:56:25;100680.28;;;13.91;54.00
19676;BME280;39539;52.202;9.876;2023-03-15T09:58:56;100679.44;;;15.44;49.87
19676;BME280;39539;52.202;9.876;2023-03-15T10:01:36;100669.00;;;15.88;46.51
19676;BME280;39539;52.202;9.876;2023-03-15T10:04:26;100659.88;;;15.43;47.16
19676;BME280;39539;52.202;9.876;2023-03-15T10:06:56;100671.06;;;15.98;47.01
19676;BME280;39539;52.202;9.876;2023-03-15T10:09:25;100670.47;;;15.96;46.73
19676;BME280;39539;52.202;9.876;2023-03-15T10:12:04;100666.69;;;15.51;47.12
19676;BME280;39539;52.202;9.876;2023-03-15T10:18:09;100677.41;;;16.42;43.09
19676;BME280;39539;52.202;9.876;2023-03-15T10:20:44;100680.16;;;17.25;41.21
19676;BME280;39539;52.202;9.876;2023-03-15T10:23:44;100672.53;;;17.17;42.32
19676;BME280;39539;52.202;9.876;2023-03-15T10:26:24;100666.47;;;15.81;42.93
19676;BME280;39539;52.202;9.876;2023-03-15T10:28:53;100665.50;;;13.77;46.05
19676;BME280;39539;52.202;9.876;2023-03-15T10:31:25;100667.84;;;12.88;49.90
19676;BME280;39539;52.202;9.876;2023-03-15T10:33:52;100672.88;;;12.78;50.21
19676;BME280;39539;52.202;9.876;2023-03-15T10:36:23;100672.91;;;12.28;53.11
19676;BME280;39539;52.202;9.876;2023-03-15T10:38:52;100661.78;;;11.74;52.46
19676;BME280;39539;52.202;9.876;2023-03-15T10:41:35;100675.16;;;12.06;53.63
19676;BME280;39539;52.202;9.876;2023-03-15T10:44:04;100689.66;;;11.72;51.52
19676;BME280;39539;52.202;9.876;2023-03-15T10:46:30;100672.28;;;11.31;52.14
19676;BME280;39539;52.202;9.876;2023-03-15T10:51:41;100683.28;;;9.89;53.07
19676;BME280;39539;52.202;9.876;2023-03-15T10:54:19;100679.16;;;9.12;54.56
19676;BME280;39539;52.202;9.876;2023-03-15T10:56:48;100678.41;;;8.34;58.64
19676;BME280;39539;52.202;9.876;2023-03-15T10:59:21;100691.88;;;7.68;61.85
19676;BME280;39539;52.202;9.876;2023-03-15T11:01:51;100698.41;;;7.21;63.93
19676;BME280;39539;52.202;9.876;2023-03-15T11:04:23;100699.72;;;6.81;65.24
19676;BME280;39539;52.202;9.876;2023-03-15T11:09:25;100715.06;;;6.24;68.74
19676;BME280;39539;52.202;9.876;2023-03-15T11:12:00;100714.84;;;6.11;72.08
19676;BME280;39539;52.202;9.876;2023-03-15T11:14:37;100740.94;;;6.52;77.24
19676;BME280;39539;52.202;9.876;2023-03-15T11:17:07;100749.47;;;6.92;80.16
19676;BME280;39539;52.202;9.876;2023-03-15T11:19:50;100772.25;;;7.52;77.80
19676;BME280;39539;52.202;9.876;2023-03-15T11:22:18;100761.28;;;7.70;64.78
19676;BME280;39539;52.202;9.876;2023-03-15T11:24:49;100766.56;;;8.06;63.92
19676;BME280;39539;52.202;9.876;2023-03-15T11:27:28;100756.88;;;8.35;62.39
19676;BME280;39539;52.202;9.876;2023-03-15T11:30:00;100760.69;;;8.47;59.78
19676;BME280;39539;52.202;9.876;2023-03-15T11:32:28;100757.47;;;8.37;59.69
19676;BME280;39539;52.202;9.876;2023-03-15T11:35:26;100760.50;;;8.34;59.46
19676;BME280;39539;52.202;9.876;2023-03-15T11:38:00;100761.66;;;8.25;58.90
19676;BME280;39539;52.202;9.876;2023-03-15T11:40:37;100763.56;;;8.52;60.44
19676;BME280;39539;52.202;9.876;2023-03-15T11:43:46;100761.75;;;8.81;59.23
19676;BME280;39539;52.202;9.876;2023-03-15T11:46:20;100753.38;;;8.49;57.93
19676;BME280;39539;52.202;9.876;2023-03-15T11:48:53;100752.09;;;8.45;59.80
19676;BME280;39539;52.202;9.876;2023-03-15T11:51:20;100740.72;;;8.30;59.26
19676;BME280;39539;52.202;9.876;2023-03-15T11:53:54;100747.44;;;8.47;58.33
19676;BME280;39539;52.202;9.876;2023-03-15T11:56:49;100750.75;;;8.77;58.84
19676;BME280;39539;52.202;9.876;2023-03-15T11:59:23;100764.44;;;9.16;57.18
19676;BME280;39539;52.202;9.876;2023-03-15T12:07:05;100748.44;;;9.03;55.76
19676;BME280;39539;52.202;9.876;2023-03-15T12:09:39;100752.25;;;8.93;56.72
19676;BME280;39539;52.202;9.876;2023-03-15T12:17:46;100711.47;;;7.23;58.62
19676;BME280;39539;52.202;9.876;2023-03-15T12:28:22;100746.44;;;7.54;58.26
19676;BME280;39539;52.202;9.876;2023-03-15T12:30:55;100757.59;;;7.86;56.71
19676;BME280;39539;52.202;9.876;2023-03-15T12:33:24;100762.38;;;7.97;55.93
19676;BME280;39539;52.202;9.876;2023-03-15T12:35:59;100764.50;;;8.02;54.53
19676;BME280;39539;52.202;9.876;2023-03-15T12:38:34;100748.72;;;7.94;54.95
19676;BME280;39539;52.202;9.876;2023-03-15T12:41:06;100748.72;;;7.94;56.50
19676;BME280;39539;52.202;9.876;2023-03-15T12:43:41;100756.34;;;8.03;56.24
19676;BME280;39539;52.202;9.876;2023-03-15T12:49:27;100765.50;;;8.65;58.36
19676;BME280;39539;52.202;9.876;2023-03-15T12:55:05;100784.44;;;9.18;56.83
19676;BME280;39539;52.202;9.876;2023-03-15T12:57:38;100785.63;;;8.38;62.31
19676;BME280;39539;52.202;9.876;2023-03-15T13:00:17;100795.31;;;7.14;72.04
19676;BME280;39539;52.202;9.876;2023-03-15T13:03:04;100807.81;;;6.21;77.98
19676;BME280;39539;52.202;9.876;2023-03-15T13:05:46;100816.97;;;5.63;83.39
19676;BME280;39539;52.202;9.876;2023-03-15T13:08:27;100839.50;;;5.18;84.03
19676;BME280;39539;52.202;9.876;2023-03-15T13:29:18;100942.66;;;4.48;99.09
19676;BME280;39539;52.202;9.876;2023-03-15T13:31:59;100945.34;;;4.72;99.46
19676;BME280;39539;52.202;9.876;2023-03-15T13:34:26;100953.44;;;4.87;98.61
19676;BME280;39539;52.202;9.876;2023-03-15T13:36:58;100958.38;;;4.90;97.48
19676;BME280;39539;52.202;9.876;2023-03-15T13:39:31;100958.50;;;4.81;96.63
19676;BME280;39539;52.202;9.876;2023-03-15T13:42:17;100957.50;;;4.65;95.44
19676;BME280;39539;52.202;9.876;2023-03-15T13:44:44;100959.28;;;4.48;94.99
19676;BME280;39539;52.202;9.876;2023-03-15T13:47:20;100961.16;;;4.30;93.02
19676;BME280;39539;52.202;9.876;2023-03-15T13:49:52;100961.56;;;4.43;92.67
19676;BME280;39539;52.202;9.876;2023-03-15T13:52:17;100972.47;;;4.57;95.14
19676;BME280;39539;52.202;9.876;2023-03-15T13:54:43;100980.38;;;4.65;95.19
19676;BME280;39539;52.202;9.876;2023-03-15T13:57:18;100989.44;;;4.70;96.39
19676;BME280;39539;52.202;9.876;2023-03-15T14:02:59;100986.16;;;4.68;95.90
19676;BME280;39539;52.202;9.876;2023-03-15T14:05:28;100996.84;;;4.75;93.62
19676;BME280;39539;52.202;9.876;2023-03-15T14:07:58;100998.31;;;4.69;92.58
19676;BME280;39539;52.202;9.876;2023-03-15T14:10:32;100999.34;;;4.85;91.84